Time;durP1;ratioP1;P1;durP2;ratioP2;P2;SDS_P1;SDS_P2;PMS_P1;PMS_P2;Temp;Humidity;BMP_temperature;BMP_pressure;BME280_temperature;BME280_humidity;BME280_pressure;Samples;Min_cycle;Max_cycle;Signal;HPM_P1;HPM_P2
2022/08/31 00:04:33;;;;;;;;;8.00;6.50;;;;;23.99;34.14;101347.25;5119441;27;45477;-66
2022/08/31 00:06:59;;;;;;;;;8.25;6.75;;;;;23.94;34.55;101339.47;5123914;27;45441;-68
2022/08/31 00:09:24;;;;;;;;;6.25;5.75;;;;;23.94;34.57;101344.84;5123466;27;45462;-67
2022/08/31 00:11:49;;;;;;;;;10.75;8.00;;;;;23.92;34.50;101343.19;5110679;27;45904;-66
2022/08/31 00:14:16;;;;;;;;;10.75;7.75;;;;;23.90;34.66;101334.34;5123742;27;45693;-66
2022/08/31 00:16:43;;;;;;;;;7.50;7.50;;;;;23.88;34.55;101330.91;5124206;27;45406;-68
2022/08/31 00:19:09;;;;;;;;;7.50;6.75;;;;;23.85;34.69;101327.44;5111035;27;45315;-67
2022/08/31 00:21:34;;;;;;;;;6.75;6.25;;;;;23.82;34.67;101326.75;5136195;27;47515;-66
2022/08/31 00:24:00;;;;;;;;;7.00;6.75;;;;;23.79;34.78;101319.75;5108478;27;45404;-67
2022/08/31 00:26:25;;;;;;;;;8.25;7.25;;;;;23.77;34.85;101328.88;5110209;27;45255;-67
2022/08/31 00:28:51;;;;;;;;;9.25;8.75;;;;;23.72;34.91;101326.44;5123430;27;45274;-67
2022/08/31 00:31:17;;;;;;;;;6.75;6.50;;;;;23.72;34.51;101331.81;5115840;27;46030;-67
2022/08/31 00:33:43;;;;;;;;;6.00;6.00;;;;;23.68;34.90;101328.47;5102910;27;45309;-67
2022/08/31 00:36:12;;;;;;;;;7.25;7.25;;;;;23.65;34.89;101325.97;5102901;27;45442;-68
2022/08/31 00:38:39;;;;;;;;;10.00;8.50;;;;;23.61;34.92;101320.88;5117697;27;45513;-67
2022/08/31 00:41:07;;;;;;;;;8.75;7.00;;;;;23.59;34.92;101318.28;5114586;27;45385;-67
2022/08/31 00:43:35;;;;;;;;;7.75;6.00;;;;;23.57;35.03;101327.38;5102746;27;45231;-67
2022/08/31 00:46:01;;;;;;;;;7.25;7.25;;;;;23.51;35.01;101316.06;5103069;27;45446;-66
2022/08/31 00:48:26;;;;;;;;;7.25;7.25;;;;;23.49;34.92;101325.16;5102816;27;45373;-66
2022/08/31 00:50:52;;;;;;;;;7.50;7.00;;;;;23.46;35.26;101322.66;5102322;27;45491;-66
2022/08/31 00:53:18;;;;;;;;;7.75;7.75;;;;;23.43;35.19;101322.84;5102522;27;45383;-66
2022/08/31 00:55:43;;;;;;;;;8.00;6.00;;;;;23.39;35.04;101326.69;5103131;27;45245;-65
2022/08/31 00:58:11;;;;;;;;;6.00;5.50;;;;;23.37;35.23;101322.25;5102536;27;45567;-65
2022/08/31 01:00:41;;;;;;;;;7.75;5.50;;;;;23.32;35.57;101320.78;5102757;27;45371;-65
2022/08/31 01:03:07;;;;;;;;;7.00;6.50;;;;;23.30;35.06;101328.94;5092052;27;45462;-65
2022/08/31 01:05:34;;;;;;;;;6.75;6.75;;;;;23.28;35.56;101324.63;5123506;27;45470;-65
2022/08/31 01:08:00;;;;;;;;;3.00;3.00;;;;;23.25;35.33;101328.34;5106798;27;45697;-65
2022/08/31 01:10:30;;;;;;;;;4.50;4.50;;;;;23.23;35.43;101321.34;5102526;27;45349;-65
2022/08/31 01:12:57;;;;;;;;;6.00;6.00;;;;;23.19;35.29;101323.34;5115968;27;45507;-65
2022/08/31 01:15:23;;;;;;;;;6.00;6.00;;;;;23.18;35.17;101329.66;5102621;27;45318;-65
2022/08/31 01:17:52;;;;;;;;;6.50;5.75;;;;;23.14;35.56;101323.56;5102377;27;45492;-65
2022/08/31 01:20:45;;;;;;;;;6.75;6.75;;;;;23.11;35.39;101322.91;5101169;27;46212;-66
2022/08/31 01:23:25;;;;;;;;;7.75;6.00;;;;;23.08;35.62;101323.06;5109673;27;45189;-65
2022/08/31 01:25:54;;;;;;;;;5.25;5.25;;;;;23.03;35.66;101326.88;5104832;27;45423;-65
2022/08/31 01:28:20;;;;;;;;;9.25;7.00;;;;;23.02;35.63;101327.81;5111566;27;45386;-65
2022/08/31 01:30:58;;;;;;;;;6.75;6.75;;;;;23.00;35.75;101326.19;5101970;27;45203;-65
2022/08/31 01:33:23;;;;;;;;;5.25;4.75;;;;;22.95;35.51;101322.91;5102243;27;45418;-65
2022/08/31 01:35:48;;;;;;;;;6.50;5.75;;;;;22.92;35.72;101323.94;5083658;27;45315;-65
2022/08/31 01:38:14;;;;;;;;;7.50;7.00;;;;;22.89;35.66;101326.78;5113351;27;45429;-65
2022/08/31 01:40:52;;;;;;;;;6.75;6.75;;;;;22.86;35.75;101329.66;5099334;27;47154;-65
2022/08/31 01:43:18;;;;;;;;;6.75;6.00;;;;;22.82;36.03;101328.97;5102033;27;45362;-65
2022/08/31 01:45:43;;;;;;;;;8.00;7.00;;;;;22.79;36.02;101330.94;5083771;27;45294;-65
2022/08/31 01:48:10;;;;;;;;;5.00;5.00;;;;;22.78;35.79;101331.91;5102121;27;45216;-65
2022/08/31 01:50:36;;;;;;;;;6.00;5.75;;;;;22.73;35.99;101334.84;5101366;27;45178;-65
2022/08/31 01:53:01;;;;;;;;;5.50;4.50;;;;;22.70;35.86;101341.25;5101595;27;45231;-65
2022/08/31 01:55:26;;;;;;;;;5.25;5.25;;;;;22.68;35.94;101336.94;5100778;27;45238;-65
2022/08/31 01:57:52;;;;;;;;;8.50;8.50;;;;;22.64;35.83;101341.59;5101791;27;45236;-65
2022/08/31 02:00:17;;;;;;;;;4.50;4.50;;;;;22.62;36.30;101332.75;5101709;27;47155;-65
2022/08/31 02:02:43;;;;;;;;;6.00;6.00;;;;;22.55;36.01;101326.91;5108238;27;45270;-65
2022/08/31 02:05:08;;;;;;;;;7.50;6.75;;;;;22.56;36.51;101335.78;5102433;27;45406;-65
2022/08/31 02:07:33;;;;;;;;;4.50;4.50;;;;;22.55;36.01;101339.41;5109723;27;45271;-66
2022/08/31 02:09:59;;;;;;;;;7.00;5.75;;;;;22.51;35.93;101335.16;5100771;27;45336;-65
2022/08/31 02:12:24;;;;;;;;;5.00;5.00;;;;;22.47;35.93;101338.97;5113544;27;45381;-65
2022/08/31 02:14:49;;;;;;;;;6.50;4.50;;;;;22.47;36.20;101345.19;5122119;27;45374;-66
2022/08/31 02:17:15;;;;;;;;;8.00;6.50;;;;;22.44;36.53;101333.78;5109633;27;45660;-66
2022/08/31 02:19:40;;;;;;;;;7.00;7.00;;;;;22.41;36.19;101340.16;5101153;27;45709;-66
2022/08/31 02:22:06;;;;;;;;;7.00;7.00;;;;;22.39;36.60;101334.03;5101256;27;45398;-65
2022/08/31 02:24:31;;;;;;;;;4.75;4.75;;;;;22.37;36.58;101350.16;5101393;27;45434;-66
2022/08/31 02:26:56;;;;;;;;;4.25;4.25;;;;;22.35;36.40;101352.06;5101298;27;45355;-66
2022/08/31 02:29:22;;;;;;;;;8.00;6.25;;;;;22.34;36.19;101349.44;5082618;27;46254;-66
2022/08/31 02:31:47;;;;;;;;;7.50;6.25;;;;;22.31;36.73;101345.13;5101177;27;45426;-66
2022/08/31 02:34:12;;;;;;;;;6.00;5.25;;;;;22.28;36.90;101342.63;5101166;27;45298;-66
2022/08/31 02:36:38;;;;;;;;;6.00;6.00;;;;;22.26;36.52;101351.69;5100878;27;45374;-66
2022/08/31 02:39:04;;;;;;;;;7.25;7.00;;;;;22.23;36.69;101347.34;5083804;27;46145;-65
2022/08/31 02:41:29;;;;;;;;;5.00;5.00;;;;;22.21;36.33;101349.25;5121821;27;45236;-66
2022/08/31 02:43:54;;;;;;;;;5.00;5.00;;;;;22.17;36.54;101348.53;5102352;27;45525;-66
2022/08/31 02:46:20;;;;;;;;;5.75;5.75;;;;;22.16;36.85;101351.31;5101264;27;45293;-66
2022/08/31 02:48:45;;;;;;;;;6.25;6.25;;;;;22.13;36.82;101352.31;5133987;27;45317;-66
2022/08/31 02:51:11;;;;;;;;;5.00;4.00;;;;;22.10;36.63;101357.84;5108880;27;45180;-67
2022/08/31 02:53:37;;;;;;;;;8.25;6.25;;;;;22.11;36.82;101361.38;5100895;27;45318;-66
2022/08/31 02:56:06;;;;;;;;;8.00;6.25;;;;;22.08;36.59;101352.56;5101056;27;45328;-67
2022/08/31 02:58:32;;;;;;;;;5.75;5.75;;;;;22.06;36.95;101357.16;5100399;27;46202;-67
2022/08/31 03:00:58;;;;;;;;;6.25;6.00;;;;;22.04;36.64;101353.69;5100818;27;45237;-66
2022/08/31 03:03:23;;;;;;;;;7.75;5.00;;;;;22.01;36.58;101359.22;5111282;27;45359;-66
2022/08/31 03:05:49;;;;;;;;;6.75;6.00;;;;;22.00;36.91;101357.47;5121434;27;45327;-66
2022/08/31 03:08:14;;;;;;;;;6.00;6.00;;;;;21.95;36.92;101346.16;5116561;27;45234;-66
2022/08/31 03:10:40;;;;;;;;;5.50;5.00;;;;;21.95;37.24;101362.22;5100665;27;45162;-65
2022/08/31 03:13:05;;;;;;;;;5.75;5.75;;;;;21.93;37.11;101356.06;5118523;27;45310;-66
2022/08/31 03:15:31;;;;;;;;;8.75;8.75;;;;;21.89;37.10;101358.03;5121297;27;45567;-66
2022/08/31 03:17:56;;;;;;;;;7.00;6.50;;;;;21.88;37.48;101350.09;5134925;27;45353;-66
2022/08/31 03:20:24;;;;;;;;;7.75;6.00;;;;;21.85;36.98;101359.13;5121283;27;45202;-65
2022/08/31 03:22:49;;;;;;;;;6.75;6.50;;;;;21.84;37.31;101360.06;5104129;27;45404;-65
2022/08/31 03:25:16;;;;;;;;;8.00;6.25;;;;;21.82;37.24;101363.78;5104132;27;45375;-65
2022/08/31 03:27:42;;;;;;;;;8.00;7.25;;;;;21.80;37.10;101373.69;5103897;27;46077;-65
2022/08/31 03:30:11;;;;;;;;;5.50;5.00;;;;;21.77;37.38;101369.34;5104068;27;45380;-65
2022/08/31 03:32:37;;;;;;;;;6.00;6.00;;;;;21.73;37.41;101363.28;5104007;27;45356;-66
2022/08/31 03:35:04;;;;;;;;;5.50;5.50;;;;;21.70;37.01;101371.50;5104008;27;45355;-65
2022/08/31 03:37:30;;;;;;;;;11.25;6.75;;;;;21.69;37.61;101371.56;5108464;27;45860;-64
2022/08/31 03:39:55;;;;;;;;;4.00;4.00;;;;;21.62;37.25;101360.31;5106057;27;45438;-64
2022/08/31 03:42:21;;;;;;;;;4.75;4.75;;;;;21.62;37.82;101371.00;5118691;27;45762;-65
2022/08/31 03:44:47;;;;;;;;;5.25;5.25;;;;;21.59;37.28;101365.81;5103953;27;45299;-65
2022/08/31 03:47:13;;;;;;;;;7.75;7.00;;;;;21.54;37.00;101376.72;5103541;27;46111;-65
2022/08/31 03:49:38;;;;;;;;;5.25;4.25;;;;;21.52;37.37;101372.38;5103934;27;45348;-65
2022/08/31 03:52:04;;;;;;;;;49.75;41.75;;;;;21.52;37.46;101377.72;5103550;27;45247;-66
2022/08/31 03:54:30;;;;;;;;;26.25;20.75;;;;;21.48;37.48;101374.34;5103661;27;45305;-65
2022/08/31 03:56:55;;;;;;;;;9.75;9.75;;;;;21.47;37.56;101369.06;5102218;27;46911;-65
2022/08/31 03:59:20;;;;;;;;;4.50;4.50;;;;;21.42;37.99;101369.31;5103660;27;45361;-66
2022/08/31 04:01:46;;;;;;;;;9.25;5.50;;;;;21.41;37.80;101379.13;5103653;27;45421;-65
2022/08/31 04:04:12;;;;;;;;;7.75;6.50;;;;;21.40;37.93;101376.56;5121317;27;45470;-66
2022/08/31 04:06:40;;;;;;;;;5.50;5.50;;;;;21.38;37.94;101375.75;5123802;27;45367;-65
2022/08/31 04:09:05;;;;;;;;;6.00;6.00;;;;;21.35;37.70;101382.13;5124084;27;45339;-66
2022/08/31 04:11:31;;;;;;;;;6.75;6.25;;;;;21.32;38.08;101374.25;5122934;27;45306;-65
2022/08/31 04:13:56;;;;;;;;;5.00;3.75;;;;;21.31;38.22;101374.31;5093568;27;45780;-65
2022/08/31 04:16:23;;;;;;;;;6.00;5.75;;;;;21.29;37.77;101373.53;5103214;27;46507;-65
2022/08/31 04:18:48;;;;;;;;;6.75;6.00;;;;;21.24;38.15;101374.66;5102547;27;45289;-65
2022/08/31 04:21:17;;;;;;;;;8.50;7.75;;;;;21.23;38.36;101378.25;5103086;27;45321;-65
2022/08/31 04:23:42;;;;;;;;;6.50;5.25;;;;;21.21;38.42;101368.59;5103317;27;45407;-65
2022/08/31 04:26:21;;;;;;;;;9.00;9.00;;;;;21.17;37.80;101375.00;5142729;27;45310;-65
2022/08/31 04:28:47;;;;;;;;;5.75;5.75;;;;;21.09;37.65;101362.91;5127079;27;45403;-66
2022/08/31 04:31:13;;;;;;;;;4.50;4.50;;;;;21.12;38.29;101375.25;5103424;27;45329;-66
2022/08/31 04:33:39;;;;;;;;;7.00;7.00;;;;;21.09;37.87;101370.03;5102488;27;45445;-65
2022/08/31 04:36:07;;;;;;;;;5.50;5.00;;;;;21.07;37.93;101367.44;5102882;27;45312;-66
2022/08/31 04:38:33;;;;;;;;;7.00;7.00;;;;;21.03;38.13;101376.56;5116993;27;45449;-66
2022/08/31 04:41:03;;;;;;;;;7.25;7.25;;;;;21.02;38.06;101374.81;5084922;27;45424;-65
2022/08/31 04:43:29;;;;;;;;;9.00;6.75;;;;;21.00;38.23;101379.34;5102847;27;45413;-66
2022/08/31 04:45:54;;;;;;;;;8.25;8.00;;;;;20.99;37.99;101374.94;5102839;27;45939;-66
2022/08/31 04:48:20;;;;;;;;;7.50;6.25;;;;;20.96;38.57;101380.44;5102702;27;45294;-66
2022/08/31 04:50:49;;;;;;;;;5.75;5.00;;;;;20.93;38.15;101383.28;5102627;27;48679;-65
2022/08/31 04:53:15;;;;;;;;;8.00;6.00;;;;;20.91;38.25;101383.31;5102772;27;45399;-65
2022/08/31 04:55:42;;;;;;;;;10.00;7.50;;;;;20.88;38.52;101383.50;5102748;27;45381;-65
2022/08/31 04:58:08;;;;;;;;;7.00;7.00;;;;;20.88;37.98;101387.94;5102422;27;45465;-66
2022/08/31 05:00:34;;;;;;;;;7.75;6.00;;;;;20.83;38.87;101379.28;5102931;27;45332;-66
2022/08/31 05:02:59;;;;;;;;;6.00;6.00;;;;;20.83;38.44;101384.63;5109502;27;45452;-66
2022/08/31 05:05:25;;;;;;;;;5.50;5.00;;;;;20.80;38.62;101379.44;5104705;27;46061;-65
2022/08/31 05:07:50;;;;;;;;;15.25;12.75;;;;;20.82;38.60;101374.88;5121632;27;45286;-65
2022/08/31 05:10:15;;;;;;;;;24.25;21.25;;;;;20.81;38.34;101384.72;5102868;27;45500;-65
2022/08/31 05:12:43;;;;;;;;;5.00;5.00;;;;;20.80;39.00;101380.31;5116687;27;45304;-65
2022/08/31 05:15:09;;;;;;;;;7.00;7.00;;;;;20.80;38.43;101390.13;5131527;27;45424;-65
2022/08/31 05:17:34;;;;;;;;;7.00;7.00;;;;;20.77;38.89;101383.97;5127507;27;45338;-65
2022/08/31 05:19:59;;;;;;;;;6.75;6.00;;;;;20.75;38.97;101391.22;5084211;27;45331;-65
2022/08/31 05:22:25;;;;;;;;;8.50;7.00;;;;;20.74;38.53;101391.28;5101942;27;45626;-65
2022/08/31 05:24:50;;;;;;;;;7.00;6.75;;;;;20.70;38.53;101384.31;5102455;27;45260;-65
2022/08/31 05:27:15;;;;;;;;;5.50;4.75;;;;;20.69;38.79;101393.25;5101790;27;47091;-66
2022/08/31 05:29:41;;;;;;;;;8.75;6.00;;;;;20.69;39.18;101387.91;5084123;27;45519;-65
2022/08/31 05:32:06;;;;;;;;;9.00;7.00;;;;;20.63;39.12;101389.09;5102038;27;45599;-65
2022/08/31 05:34:32;;;;;;;;;6.25;6.25;;;;;20.62;38.95;101387.34;5101882;27;45523;-65
2022/08/31 05:36:57;;;;;;;;;7.25;7.25;;;;;20.61;38.74;101386.47;5102318;27;45256;-65
2022/08/31 05:39:23;;;;;;;;;7.50;6.00;;;;;20.60;39.32;101375.84;5122682;27;45486;-65
2022/08/31 05:41:48;;;;;;;;;7.75;7.00;;;;;20.57;38.88;101374.19;5107505;27;45254;-65
2022/08/31 05:44:15;;;;;;;;;6.00;6.00;;;;;20.60;38.69;101383.88;5102026;27;45294;-65
2022/08/31 05:46:41;;;;;;;;;9.00;8.00;;;;;20.59;39.40;101384.78;5100904;27;45223;-65
2022/08/31 05:49:07;;;;;;;;;7.00;6.00;;;;;20.59;39.44;101382.13;5101948;27;45350;-65
2022/08/31 05:51:33;;;;;;;;;8.00;7.25;;;;;20.59;39.23;101382.13;5101614;27;45359;-65
2022/08/31 05:54:00;;;;;;;;;7.75;5.75;;;;;20.58;38.69;101383.94;5101683;27;45358;-65
2022/08/31 05:56:26;;;;;;;;;8.75;7.75;;;;;20.58;39.36;101388.44;5101628;27;45309;-65
2022/08/31 05:58:52;;;;;;;;;8.00;7.00;;;;;20.49;39.44;101371.03;5083257;27;45319;-65
2022/08/31 06:01:21;;;;;;;;;7.00;7.00;;;;;20.59;39.50;101392.81;5101712;27;45384;-65
2022/08/31 06:03:47;;;;;;;;;6.25;6.25;;;;;20.59;39.59;101393.69;5113998;27;47238;-65
2022/08/31 06:06:13;;;;;;;;;9.75;9.25;;;;;20.60;39.53;101397.22;5120516;27;45799;-65
2022/08/31 06:08:40;;;;;;;;;9.00;7.75;;;;;20.60;39.24;101407.91;5122615;27;45492;-66
2022/08/31 06:11:12;;;;;;;;;7.75;6.75;;;;;20.60;39.61;101400.78;5122065;27;45302;-65
2022/08/31 06:13:38;;;;;;;;;7.00;7.00;;;;;20.61;39.77;101409.63;5121832;27;46787;-65
2022/08/31 06:16:03;;;;;;;;;8.75;8.75;;;;;20.60;39.20;101405.22;5122092;27;45141;-65
2022/08/31 06:18:29;;;;;;;;;7.75;6.75;;;;;20.57;39.23;101402.72;5122478;27;45459;-66
2022/08/31 06:21:07;;;;;;;;;12.75;9.50;;;;;20.59;39.76;101396.38;5121745;27;45330;-65
2022/08/31 06:23:34;;;;;;;;;7.00;7.00;;;;;20.60;39.67;101397.22;5122272;27;46586;-65
2022/08/31 06:26:14;;;;;;;;;8.00;7.50;;;;;20.60;39.68;101397.22;5120507;27;45221;-65
2022/08/31 06:28:44;;;;;;;;;8.00;8.00;;;;;20.62;39.82;101398.03;5121935;27;45324;-65
2022/08/31 06:31:37;;;;;;;;;8.50;8.50;;;;;20.63;39.50;101400.63;5121741;27;45189;-66
2022/08/31 06:34:06;;;;;;;;;8.50;7.75;;;;;20.62;39.95;101398.88;5118570;27;46396;-65
2022/08/31 06:36:32;;;;;;;;;8.00;8.00;;;;;20.62;39.98;101398.88;5121607;27;45501;-65
2022/08/31 06:38:59;;;;;;;;;7.00;7.00;;;;;20.65;39.93;101403.22;5121704;27;45344;-65
2022/08/31 06:41:28;;;;;;;;;10.75;7.75;;;;;20.67;39.38;101409.34;5121666;27;45322;-65
2022/08/31 06:43:54;;;;;;;;;10.50;7.50;;;;;20.64;40.09;101406.84;5121358;27;47388;-66
2022/08/31 06:46:22;;;;;;;;;8.50;8.50;;;;;20.69;40.04;101409.28;5121681;27;45299;-65
2022/08/31 06:48:49;;;;;;;;;5.50;5.50;;;;;20.69;39.52;101411.94;5121859;27;45274;-66
2022/08/31 06:51:16;;;;;;;;;8.25;7.75;;;;;20.72;39.91;101411.84;5121382;27;45414;-67
2022/08/31 06:53:42;;;;;;;;;8.50;7.00;;;;;20.73;40.19;101418.94;5121302;27;46389;-67
2022/08/31 06:56:15;;;;;;;;;8.75;8.25;;;;;20.74;39.85;101415.31;5121274;27;45318;-65
2022/08/31 06:58:40;;;;;;;;;11.50;10.00;;;;;20.75;40.04;101414.38;5102261;27;45322;-66
2022/08/31 07:01:10;;;;;;;;;6.00;6.00;;;;;20.75;39.86;101409.91;5121456;27;45469;-66
2022/08/31 07:03:37;;;;;;;;;7.50;7.50;;;;;20.77;39.90;101416.03;5120936;27;46286;-65
2022/08/31 07:06:27;;;;;;;;;7.00;6.25;;;;;20.80;39.96;101415.03;5120208;27;45234;-65
2022/08/31 07:08:55;;;;;;;;;10.50;9.25;;;;;20.83;40.40;101412.22;5111208;27;45344;-65
2022/08/31 07:11:32;;;;;;;;;12.00;10.50;;;;;20.85;40.32;101414.81;5121289;27;45227;-65
2022/08/31 07:13:59;;;;;;;;;12.25;8.25;;;;;20.86;39.96;101411.22;5120930;27;45264;-65
2022/08/31 07:16:25;;;;;;;;;8.25;8.00;;;;;20.89;40.46;101419.94;5121347;27;45380;-65
2022/08/31 07:18:53;;;;;;;;;10.25;8.00;;;;;20.92;39.90;101418.94;5121260;27;45344;-66
2022/08/31 07:21:22;;;;;;;;;11.25;11.00;;;;;20.94;40.06;101417.94;5120871;27;45259;-66
2022/08/31 07:23:49;;;;;;;;;9.00;8.00;;;;;21.00;40.45;101423.91;5121073;27;47123;-66
2022/08/31 07:26:24;;;;;;;;;11.00;9.00;;;;;21.00;40.05;101414.09;5120978;27;45362;-65
2022/08/31 07:28:53;;;;;;;;;10.75;9.00;;;;;21.05;40.51;101412.06;5120953;27;45353;-66
2022/08/31 07:31:21;;;;;;;;;12.50;10.75;;;;;21.08;40.57;101417.28;5121057;27;45231;-66
2022/08/31 07:33:54;;;;;;;;;8.75;8.75;;;;;21.11;40.09;101411.75;5120869;27;46373;-66
2022/08/31 07:36:21;;;;;;;;;9.00;9.00;;;;;21.14;40.20;101409.91;5102277;27;45271;-66
2022/08/31 07:44:17;;;;;;;;;11.75;10.00;;;;;21.27;40.59;101411.03;5120765;27;45318;-66
2022/08/31 07:46:44;;;;;;;;;9.00;7.75;;;;;21.29;40.57;101406.47;5120763;27;45178;-66
2022/08/31 07:49:12;;;;;;;;;12.25;11.25;;;;;21.33;40.14;101408.03;5102615;27;45324;-66
2022/08/31 07:51:44;;;;;;;;;9.75;8.00;;;;;21.40;40.36;101411.31;5120577;27;45628;-66
2022/08/31 07:54:12;;;;;;;;;12.00;10.00;;;;;21.43;39.95;101414.69;5120621;27;47440;-66
2022/08/31 07:56:37;;;;;;;;;11.00;11.00;;;;;21.48;40.39;101414.44;5120623;27;45557;-67
2022/08/31 07:59:06;;;;;;;;;8.75;8.25;;;;;21.53;40.60;101412.41;5119748;27;45263;-66
2022/08/31 08:01:36;;;;;;;;;7.75;7.75;;;;;21.57;39.95;101410.47;5120817;27;45219;-66
2022/08/31 08:04:02;;;;;;;;;9.00;9.00;;;;;21.61;40.30;101414.75;5120449;27;46083;-66
2022/08/31 08:06:28;;;;;;;;;10.75;8.75;;;;;21.67;40.18;101418.91;5085234;27;45375;-66
2022/08/31 08:08:56;;;;;;;;;13.75;12.50;;;;;21.71;40.20;101416.03;5101399;27;45182;-66
2022/08/31 08:11:21;;;;;;;;;19.50;18.00;;;;;21.77;40.23;101412.16;5102975;27;45534;-66
2022/08/31 08:13:48;;;;;;;;;10.00;9.25;;;;;21.83;40.56;101411.00;5103349;27;46193;-66
2022/08/31 08:16:14;;;;;;;;;14.25;11.75;;;;;21.88;40.38;101406.25;5103527;27;45279;-66
2022/08/31 08:18:40;;;;;;;;;10.00;10.00;;;;;21.92;40.22;101402.47;5103440;27;45256;-66
2022/08/31 08:21:06;;;;;;;;;13.75;8.75;;;;;21.95;40.15;101396.09;5101002;27;45426;-66
2022/08/31 08:23:31;;;;;;;;;10.25;9.25;;;;;22.02;40.04;101401.06;5103426;27;45295;-66
2022/08/31 08:26:00;;;;;;;;;11.25;10.50;;;;;22.08;40.01;101397.22;5103222;27;45314;-65
2022/08/31 08:28:28;;;;;;;;;10.00;9.50;;;;;22.13;40.44;101394.28;5103270;27;45331;-66
2022/08/31 08:30:57;;;;;;;;;11.25;10.50;;;;;22.21;40.61;101395.63;5103106;27;45447;-66
2022/08/31 08:33:24;;;;;;;;;12.00;9.50;;;;;22.29;39.73;101386.28;5102957;27;46097;-66
2022/08/31 08:35:59;;;;;;;;;9.25;9.25;;;;;22.35;40.14;101397.56;5102760;27;45516;-67
2022/08/31 08:38:29;;;;;;;;;10.00;9.00;;;;;22.42;40.27;101395.44;5102974;27;45383;-66
2022/08/31 08:40:56;;;;;;;;;11.25;10.25;;;;;22.49;40.03;101395.97;5102939;27;45340;-66
2022/08/31 08:43:37;;;;;;;;;10.00;8.75;;;;;22.57;39.75;101388.41;5102742;27;46439;-66
2022/08/31 08:46:04;;;;;;;;;9.25;9.25;;;;;22.64;39.87;101387.13;5102486;27;45262;-66
2022/08/31 08:48:36;;;;;;;;;13.25;9.75;;;;;22.71;40.07;101385.81;5103152;27;45248;-67
2022/08/31 08:51:08;;;;;;;;;11.25;11.25;;;;;22.79;39.83;101389.88;5102639;27;45182;-66
2022/08/31 08:53:35;;;;;;;;;12.75;12.75;;;;;22.85;40.04;101385.03;5102566;27;45265;-67
2022/08/31 08:56:01;;;;;;;;;13.00;11.75;;;;;22.94;40.15;101390.84;5084459;27;45926;-67
2022/08/31 08:58:26;;;;;;;;;16.00;12.25;;;;;23.01;39.90;101390.41;5102553;27;45369;-67
2022/08/31 09:00:53;;;;;;;;;14.50;11.00;;;;;23.09;40.01;101387.28;5102768;27;45400;-67
2022/08/31 09:03:32;;;;;;;;;10.50;9.25;;;;;23.14;39.92;101381.69;5106114;27;46391;-68
2022/08/31 09:06:09;;;;;;;;;11.50;11.50;;;;;23.24;39.87;101388.25;5122959;27;45439;-67
2022/08/31 09:09:06;;;;;;;;;12.00;12.00;;;;;23.30;39.77;101379.88;5123390;27;45396;-67
2022/08/31 09:11:51;;;;;;;;;11.25;11.00;;;;;23.42;39.55;101385.47;5123130;27;45299;-68
2022/08/31 09:14:46;;;;;;;;;10.00;9.75;;;;;23.51;39.84;101379.59;5122738;27;45473;-68
2022/08/31 09:17:17;;;;;;;;;12.25;10.25;;;;;23.59;39.75;101382.66;5121868;27;45259;-68
2022/08/31 09:20:02;;;;;;;;;12.75;11.75;;;;;23.65;39.79;101371.56;5121922;27;45472;-68
2022/08/31 09:22:30;;;;;;;;;10.25;8.25;;;;;23.77;39.48;101378.03;5122743;27;45505;-68
2022/08/31 09:24:58;;;;;;;;;11.75;10.25;;;;;23.86;39.35;101377.47;5122943;27;45378;-68
2022/08/31 09:27:45;;;;;;;;;13.25;12.25;;;;;23.98;39.22;101372.34;5122662;27;45656;-68
2022/08/31 09:30:32;;;;;;;;;12.25;10.25;;;;;24.06;39.38;101370.03;5123038;27;45282;-68
2022/08/31 09:32:57;;;;;;;;;11.25;10.50;;;;;24.18;39.27;101363.06;5122881;27;45430;-69
2022/08/31 09:35:39;;;;;;;;;10.25;9.75;;;;;24.31;39.25;101365.84;5122638;27;45558;-68
2022/08/31 09:38:11;;;;;;;;;13.00;11.50;;;;;24.40;39.15;101348.31;5122610;27;45567;-68
2022/08/31 09:40:41;;;;;;;;;12.50;10.75;;;;;24.55;39.36;101352.69;5122725;27;45267;-68
2022/08/31 09:43:08;;;;;;;;;10.00;9.00;;;;;24.69;39.12;101351.00;5122674;27;45398;-69
2022/08/31 09:45:36;;;;;;;;;10.50;10.50;;;;;24.79;39.01;101350.31;5122380;27;46201;-68
2022/08/31 09:48:05;;;;;;;;;13.75;13.50;;;;;24.91;39.24;101362.06;5104172;27;45318;-68
2022/08/31 09:50:30;;;;;;;;;9.75;9.75;;;;;25.02;39.09;101360.50;5121732;27;45329;-68
2022/08/31 09:56:14;;;;;;;;;9.25;8.75;;;;;25.23;38.94;101347.47;5122441;27;45416;-68
2022/08/31 09:58:49;;;;;;;;;9.75;9.75;;;;;25.35;38.48;101349.34;5122118;27;45298;-68
2022/08/31 10:01:25;;;;;;;;;11.50;10.00;;;;;25.43;38.38;101341.66;5122465;27;45253;-68
2022/08/31 10:04:26;;;;;;;;;8.00;7.75;;;;;25.57;38.18;101335.34;5120858;27;45246;-68
2022/08/31 10:07:02;;;;;;;;;10.75;9.75;;;;;25.70;37.92;101331.78;5101637;27;46020;-68
2022/08/31 10:09:50;;;;;;;;;11.00;9.25;;;;;25.81;37.89;101337.31;5101660;27;45393;-68
2022/08/31 10:12:24;;;;;;;;;14.75;11.25;;;;;25.90;38.36;101325.88;5083282;27;45458;-68
2022/08/31 10:15:02;;;;;;;;;7.25;6.75;;;;;26.07;37.88;101340.03;5101387;27;45563;-68
2022/08/31 10:17:37;;;;;;;;;10.50;9.75;;;;;26.19;38.39;101339.16;5101313;27;45280;-68
2022/08/31 10:20:15;;;;;;;;;10.00;10.00;;;;;26.33;37.61;101330.09;5101612;27;45176;-68
2022/08/31 10:22:49;;;;;;;;;8.25;7.50;;;;;26.46;37.83;101334.59;5100367;27;45264;-68
2022/08/31 10:25:41;;;;;;;;;10.00;9.50;;;;;26.61;37.61;101337.03;5101301;27;45415;-68
2022/08/31 10:28:19;;;;;;;;;9.50;9.25;;;;;26.79;38.08;101331.28;5109863;27;45227;-68
2022/08/31 10:31:01;;;;;;;;;10.25;8.75;;;;;26.99;37.59;101331.66;5121596;27;45320;-67
2022/08/31 10:36:31;;;;;;;;;8.25;8.00;;;;;27.44;37.79;101337.28;5121762;27;45308;-68
2022/08/31 10:38:57;;;;;;;;;10.00;8.00;;;;;27.66;37.25;101336.50;5121435;27;46213;-68
2022/08/31 10:41:32;;;;;;;;;7.00;6.00;;;;;27.88;37.32;101330.25;5121716;27;45370;-68
2022/08/31 10:44:06;;;;;;;;;10.50;9.50;;;;;28.12;37.53;101320.38;5103106;27;45358;-68
2022/08/31 10:46:33;;;;;;;;;11.00;11.00;;;;;28.36;37.34;101322.94;5120133;27;45381;-68
2022/08/31 10:49:00;;;;;;;;;12.00;11.00;;;;;28.62;37.06;101325.38;5121417;27;45304;-67
2022/08/31 10:51:47;;;;;;;;;11.00;11.00;;;;;28.91;37.03;101308.63;5121262;27;45300;-67
2022/08/31 10:54:32;;;;;;;;;9.25;9.00;;;;;29.29;36.76;101318.09;5121731;27;45315;-67
2022/08/31 10:57:06;;;;;;;;;12.50;9.25;;;;;29.73;36.83;101317.97;5121071;27;46915;-67
2022/08/31 10:59:40;;;;;;;;;11.25;10.25;;;;;30.15;36.93;101307.97;5121186;27;46379;-67
2022/08/31 11:02:31;;;;;;;;;10.00;8.00;;;;;30.70;36.76;101316.72;5121362;27;45326;-67
2022/08/31 11:05:09;;;;;;;;;8.25;8.25;;;;;31.23;37.38;101307.34;5121162;27;45318;-67
2022/08/31 11:07:48;;;;;;;;;11.50;10.00;;;;;31.84;37.22;101316.16;5102651;27;45465;-67
2022/08/31 11:10:45;;;;;;;;;9.00;7.25;;;;;32.48;36.54;101310.88;5121372;27;45448;-67
2022/08/31 11:13:25;;;;;;;;;11.25;11.25;;;;;33.17;36.49;101319.41;5120848;27;45571;-67
2022/08/31 11:15:51;;;;;;;;;10.50;10.00;;;;;33.65;35.35;101317.31;5121144;27;45323;-67
2022/08/31 11:18:57;;;;;;;;;9.25;8.25;;;;;34.17;35.12;101316.41;5119780;27;45385;-67
2022/08/31 11:21:41;;;;;;;;;10.00;10.00;;;;;34.66;34.94;101315.75;5120974;27;45402;-68
2022/08/31 11:24:19;;;;;;;;;8.50;7.25;;;;;35.13;34.30;101311.59;5120987;27;45485;-67
2022/08/31 11:27:16;;;;;;;;;10.50;9.75;;;;;35.60;34.22;101315.53;5121198;27;45226;-67
2022/08/31 11:29:56;;;;;;;;;10.25;9.50;;;;;36.00;33.56;101321.97;5121090;27;45265;-68
2022/08/31 11:32:41;;;;;;;;;9.25;9.25;;;;;36.29;32.83;101312.28;5120841;27;45368;-68
2022/08/31 11:35:09;;;;;;;;;10.00;9.00;;;;;36.51;32.22;101316.09;5120313;27;45345;-67
2022/08/31 11:37:55;;;;;;;;;11.75;10.75;;;;;36.72;31.76;101309.16;5120457;27;45252;-68
2022/08/31 11:40:40;;;;;;;;;9.00;9.00;;;;;36.92;31.93;101317.78;5120899;27;45246;-67
2022/08/31 11:43:26;;;;;;;;;10.25;10.25;;;;;37.10;31.24;101306.50;5120298;27;45283;-67
2022/08/31 11:45:54;;;;;;;;;7.00;7.00;;;;;37.31;30.93;101302.19;5107104;27;45509;-67
2022/08/31 11:48:53;;;;;;;;;10.50;10.25;;;;;37.51;30.81;101300.69;5124479;27;45389;-67